Time;durP1;ratioP1;P1;durP2;ratioP2;P2;SDS_P1;SDS_P2;PMS_P1;PMS_P2;Temp;Humidity;BMP_temperature;BMP_pressure;BME280_temperature;BME280_humidity;BME280_pressure;Samples;Min_cycle;Max_cycle;Signal;HPM_P1;HPM_P2
2021/05/15 00:01:37;;;;;;;1999.90;999.90;;;10.50;99.90;;;;;;5062383;28;20181;-77
2021/05/15 00:04:03;;;;;;;1999.90;999.90;;;10.60;99.90;;;;;;5064814;28;20199;-76
2021/05/15 00:06:29;;;;;;;1999.90;999.90;;;10.60;99.90;;;;;;5059657;28;20191;-76
2021/05/15 00:08:55;;;;;;;1999.90;999.90;;;10.60;99.90;;;;;;5066385;28;20178;-76
2021/05/15 00:11:21;;;;;;;1999.90;999.90;;;10.60;99.90;;;;;;5066629;28;20593;-76
2021/05/15 00:13:47;;;;;;;1999.90;999.90;;;10.60;99.90;;;;;;5055035;28;20216;-76
2021/05/15 00:16:13;;;;;;;1999.90;999.90;;;10.60;99.90;;;;;;5063403;28;20673;-76
2021/05/15 00:18:39;;;;;;;1999.90;999.90;;;10.50;99.90;;;;;;5059685;28;20640;-76
2021/05/15 00:21:06;;;;;;;1999.90;999.90;;;10.60;99.90;;;;;;5070247;28;20639;-76
2021/05/15 00:23:32;;;;;;;1999.90;999.90;;;10.60;99.90;;;;;;5065314;28;20212;-76
2021/05/15 00:25:59;;;;;;;1999.90;999.90;;;10.60;99.90;;;;;;5072127;28;20184;-77
2021/05/15 00:28:26;;;;;;;1999.90;999.90;;;10.50;99.90;;;;;;5067657;28;20184;-76
2021/05/15 00:30:51;;;;;;;1999.90;999.90;;;10.50;99.90;;;;;;5068318;28;20295;-76
2021/05/15 00:33:17;;;;;;;1999.90;999.90;;;10.40;99.90;;;;;;5067516;28;20281;-77
2021/05/15 00:35:43;;;;;;;1999.90;999.90;;;10.30;99.90;;;;;;5059243;28;20180;-76
2021/05/15 00:38:10;;;;;;;1999.90;999.90;;;10.10;99.90;;;;;;5072084;28;20172;-76
2021/05/15 00:40:36;;;;;;;1999.90;999.90;;;10.10;99.90;;;;;;5066088;28;20232;-76
2021/05/15 00:43:02;;;;;;;1999.90;999.90;;;10.20;99.90;;;;;;5065372;28;20282;-76
2021/05/15 00:45:27;;;;;;;1999.90;999.90;;;10.20;99.90;;;;;;5066118;28;20183;-76
2021/05/15 00:47:53;;;;;;;1999.90;999.90;;;10.20;99.90;;;;;;5064981;28;20181;-76
2021/05/15 00:50:18;;;;;;;1999.90;999.90;;;10.10;99.90;;;;;;5063999;28;20200;-77
2021/05/15 00:52:47;;;;;;;1999.90;999.90;;;10.10;99.90;;;;;;5067557;28;20231;-76
2021/05/15 00:55:14;;;;;;;1999.90;999.90;;;10.00;99.90;;;;;;5071615;28;20178;-76
2021/05/15 00:57:40;;;;;;;1999.90;999.90;;;10.00;99.90;;;;;;5065159;28;20207;-77
2021/05/15 01:00:08;;;;;;;1999.90;999.90;;;10.00;99.90;;;;;;5065568;28;20185;-76
2021/05/15 01:02:34;;;;;;;1999.90;999.90;;;10.00;99.90;;;;;;5064626;28;20674;-76
2021/05/15 01:05:00;;;;;;;1999.90;999.90;;;10.10;99.90;;;;;;5064376;28;20268;-77
2021/05/15 01:07:26;;;;;;;1999.90;999.90;;;10.10;99.90;;;;;;5055189;28;20183;-77
2021/05/15 01:09:52;;;;;;;1999.90;999.90;;;10.20;99.90;;;;;;5054434;28;20237;-76
2021/05/15 01:12:17;;;;;;;1999.90;999.90;;;10.20;99.90;;;;;;5040060;28;20212;-77
2021/05/15 01:14:43;;;;;;;1999.90;999.90;;;10.10;99.90;;;;;;5041050;28;20200;-76
2021/05/15 01:17:10;;;;;;;1999.90;999.90;;;10.10;99.90;;;;;;5068345;28;20211;-76
2021/05/15 01:19:37;;;;;;;1999.90;999.90;;;10.10;99.90;;;;;;5055317;28;20187;-76
2021/05/15 01:22:07;;;;;;;1999.90;999.90;;;10.00;99.90;;;;;;5068040;28;20181;-76
2021/05/15 01:24:33;;;;;;;1999.90;999.90;;;10.00;99.90;;;;;;5063269;28;20177;-77
2021/05/15 01:26:59;;;;;;;1999.90;999.90;;;10.00;99.90;;;;;;5064540;28;20175;-76
2021/05/15 01:29:26;;;;;;;1999.90;999.90;;;9.90;99.90;;;;;;5059249;28;20191;-76
2021/05/15 01:31:52;;;;;;;1999.90;999.90;;;9.90;99.90;;;;;;5059658;28;20682;-76
2021/05/15 01:34:17;;;;;;;1999.90;999.90;;;9.80;99.90;;;;;;5063482;28;20207;-75
2021/05/15 01:36:44;;;;;;;1999.90;999.90;;;9.90;99.90;;;;;;5060886;28;20176;-75
2021/05/15 01:39:11;;;;;;;1999.90;999.90;;;9.90;99.90;;;;;;5054695;28;20180;-75
2021/05/15 01:41:37;;;;;;;1999.90;999.90;;;9.90;99.90;;;;;;5056495;28;20208;-75
2021/05/15 01:44:04;;;;;;;1999.90;999.90;;;9.80;99.90;;;;;;5056451;28;20231;-75
2021/05/15 01:46:30;;;;;;;1999.90;999.90;;;9.80;99.90;;;;;;5054302;28;20184;-75
2021/05/15 01:48:56;;;;;;;1999.90;999.90;;;9.80;99.90;;;;;;5062345;28;20259;-75
2021/05/15 01:51:21;;;;;;;1999.90;999.90;;;9.80;99.90;;;;;;5058771;28;20201;-75
2021/05/15 01:53:49;;;;;;;1999.90;999.90;;;9.80;99.90;;;;;;5054248;28;20199;-75
2021/05/15 01:56:17;;;;;;;1999.90;999.90;;;9.80;99.90;;;;;;5054347;28;20231;-75
2021/05/15 01:58:43;;;;;;;1999.90;999.90;;;9.80;99.90;;;;;;5053117;28;20259;-75
2021/05/15 02:01:09;;;;;;;1999.90;999.90;;;9.70;99.90;;;;;;5047869;28;20273;-76
2021/05/15 02:03:37;;;;;;;1999.90;999.90;;;9.60;99.90;;;;;;5050619;28;20208;-76
2021/05/15 02:06:03;;;;;;;1999.90;999.90;;;9.50;99.90;;;;;;5051986;28;20245;-76
2021/05/15 02:08:28;;;;;;;1999.90;999.90;;;9.50;99.90;;;;;;5050873;28;20542;-76
2021/05/15 02:10:56;;;;;;;1999.90;999.90;;;9.40;99.90;;;;;;5053632;28;20200;-76
2021/05/15 02:13:22;;;;;;;1999.90;999.90;;;9.30;99.90;;;;;;5053572;28;20205;-76
2021/05/15 02:15:48;;;;;;;1999.90;999.90;;;9.10;99.90;;;;;;5035518;28;20186;-76
2021/05/15 02:18:14;;;;;;;1999.90;999.90;;;9.10;99.90;;;;;;5051904;28;20178;-77
2021/05/15 02:20:42;;;;;;;1999.90;999.90;;;9.00;99.90;;;;;;5053550;28;20180;-76
2021/05/15 02:23:09;;;;;;;1999.90;999.90;;;9.00;99.90;;;;;;5053439;28;20214;-76
2021/05/15 02:25:34;;;;;;;1999.90;999.90;;;9.00;99.90;;;;;;5053358;28;20651;-76
2021/05/15 02:28:00;;;;;;;1999.90;999.90;;;9.00;99.90;;;;;;5053298;28;20182;-76
2021/05/15 02:30:30;;;;;;;1999.90;999.90;;;9.00;99.90;;;;;;5053250;28;20192;-76
2021/05/15 02:32:56;;;;;;;1999.90;999.90;;;9.00;99.90;;;;;;5018298;28;20620;-76
2021/05/15 02:35:22;;;;;;;1999.90;999.90;;;8.90;99.90;;;;;;5053123;28;20176;-76
2021/05/15 02:37:49;;;;;;;1999.90;999.90;;;8.80;99.90;;;;;;5062584;28;20633;-77
2021/05/15 02:40:16;;;;;;;1999.90;999.90;;;8.70;99.90;;;;;;5055053;28;20171;-76
2021/05/15 02:42:42;;;;;;;1999.90;999.90;;;8.60;99.90;;;;;;5051690;28;20207;-77
2021/05/15 02:45:10;;;;;;;1999.90;999.90;;;8.60;99.90;;;;;;5052949;28;20173;-76
2021/05/15 02:47:36;;;;;;;1999.90;999.90;;;8.60;99.90;;;;;;5035193;28;20179;-76
2021/05/15 02:50:04;;;;;;;1999.90;999.90;;;8.60;99.90;;;;;;5051938;28;20201;-76
2021/05/15 02:52:30;;;;;;;1999.90;999.90;;;8.60;99.90;;;;;;5053114;28;20200;-76
2021/05/15 02:54:56;;;;;;;1999.90;999.90;;;8.70;99.90;;;;;;5052932;28;20232;-76
2021/05/15 02:57:21;;;;;;;1999.90;999.90;;;8.70;99.90;;;;;;5052737;28;20680;-76
2021/05/15 02:59:47;;;;;;;1999.90;999.90;;;8.60;99.90;;;;;;5052878;28;20643;-76
2021/05/15 03:02:13;;;;;;;1999.90;999.90;;;8.70;99.90;;;;;;5052545;28;20271;-76
2021/05/15 03:04:38;;;;;;;1999.90;999.90;;;8.60;99.90;;;;;;5052817;28;20577;-76
2021/05/15 03:07:04;;;;;;;1999.90;999.90;;;8.60;99.90;;;;;;5052741;28;20178;-76
2021/05/15 03:09:29;;;;;;;1999.90;999.90;;;8.50;99.90;;;;;;5052488;28;20184;-76
2021/05/15 03:11:55;;;;;;;1999.90;999.90;;;8.50;99.90;;;;;;5052336;28;20178;-76
2021/05/15 03:14:21;;;;;;;1999.90;999.90;;;8.40;99.90;;;;;;5064004;22;20584;-78
2021/05/15 03:16:46;;;;;;;1999.90;999.90;;;8.40;99.90;;;;;;5073808;28;20171;-79
2021/05/15 03:19:12;;;;;;;1999.90;999.90;;;8.40;99.90;;;;;;5073423;28;20189;-78
2021/05/15 03:21:38;;;;;;;1999.90;999.90;;;8.40;99.90;;;;;;5073439;28;20723;-77
2021/05/15 03:24:04;;;;;;;1999.90;999.90;;;8.40;99.90;;;;;;5075544;28;20223;-78
2021/05/15 03:26:29;;;;;;;1999.90;999.90;;;8.30;99.90;;;;;;5058374;28;20175;-78
2021/05/15 03:28:55;;;;;;;1999.90;999.90;;;8.40;99.90;;;;;;5075891;28;20538;-78
2021/05/15 03:31:21;;;;;;;1999.90;999.90;;;8.40;99.90;;;;;;5074356;28;20196;-77
2021/05/15 03:33:46;;;;;;;1999.90;999.90;;;8.30;99.90;;;;;;5074519;28;20198;-77
2021/05/15 03:36:12;;;;;;;1999.90;999.90;;;8.40;99.90;;;;;;5074793;28;20577;-78
2021/05/15 03:38:38;;;;;;;1999.90;999.90;;;8.40;99.90;;;;;;5057699;28;20732;-77
2021/05/15 03:41:03;;;;;;;1999.90;999.90;;;8.30;99.90;;;;;;5072919;28;20169;-77
2021/05/15 03:43:29;;;;;;;1999.90;999.90;;;8.30;99.90;;;;;;5071843;28;20199;-77
2021/05/15 03:45:56;;;;;;;1999.90;999.90;;;8.30;99.90;;;;;;5073104;28;20618;-78
2021/05/15 03:48:22;;;;;;;1999.90;999.90;;;8.40;99.90;;;;;;5072956;28;20262;-78
2021/05/15 03:50:52;;;;;;;1999.90;999.90;;;8.30;99.90;;;;;;5072900;28;20205;-78
2021/05/15 03:53:17;;;;;;;1999.90;999.90;;;8.30;99.90;;;;;;5075204;28;20219;-78
2021/05/15 03:55:44;;;;;;;1999.90;999.90;;;8.40;99.90;;;;;;5074794;28;20164;-79
2021/05/15 03:58:10;;;;;;;1999.90;999.90;;;8.30;99.90;;;;;;5072785;28;20262;-78
2021/05/15 04:00:36;;;;;;;1999.90;999.90;;;8.30;99.90;;;;;;5049243;28;20242;-80
2021/05/15 04:03:01;;;;;;;1999.90;999.90;;;8.30;99.90;;;;;;5044051;28;20729;-78
2021/05/15 04:05:27;;;;;;;1999.90;999.90;;;8.30;99.90;;;;;;5032293;28;20564;-78
2021/05/15 04:07:53;;;;;;;1999.90;999.90;;;8.20;99.90;;;;;;5035503;28;20195;-78
2021/05/15 04:10:19;;;;;;;1999.90;999.90;;;8.10;99.90;;;;;;5051527;28;20223;-79
2021/05/15 04:15:37;;;;;;;1999.90;999.90;;;8.10;99.90;;;;;;5047033;28;20182;-78
2021/05/15 04:18:11;;;;;;;1999.90;999.90;;;8.10;99.90;;;;;;5049739;28;20167;-79
2021/05/15 04:20:38;;;;;;;1999.90;999.90;;;8.00;99.90;;;;;;5048869;28;20693;-76
2021/05/15 04:23:04;;;;;;;1999.90;999.90;;;8.10;99.90;;;;;;5039196;28;20354;-76
2021/05/15 04:25:30;;;;;;;1999.90;999.90;;;8.10;99.90;;;;;;5040711;28;20175;-78
2021/05/15 04:27:57;;;;;;;1999.90;999.90;;;8.10;99.90;;;;;;5051709;28;20175;-77
2021/05/15 04:30:24;;;;;;;1999.90;999.90;;;8.10;99.90;;;;;;5048622;28;20191;-78
2021/05/15 04:32:50;;;;;;;1999.90;999.90;;;8.10;99.90;;;;;;5041418;28;20178;-78
2021/05/15 04:35:16;;;;;;;1999.90;999.90;;;8.10;99.90;;;;;;5053455;28;20224;-78
2021/05/15 04:37:42;;;;;;;1999.90;999.90;;;8.10;99.90;;;;;;5048926;28;20233;-77
2021/05/15 04:40:09;;;;;;;1999.90;999.90;;;8.10;99.90;;;;;;5052769;28;20245;-78
2021/05/15 04:42:37;;;;;;;1999.90;999.90;;;8.20;99.90;;;;;;5052284;28;20166;-78
2021/05/15 04:45:08;;;;;;;1999.90;999.90;;;8.20;99.90;;;;;;5056244;28;20195;-77
2021/05/15 04:47:34;;;;;;;1999.90;999.90;;;8.30;99.90;;;;;;5055083;28;20175;-78
2021/05/15 04:50:00;;;;;;;1999.90;999.90;;;8.20;99.90;;;;;;5039737;28;20191;-76
2021/05/15 04:52:26;;;;;;;1999.90;999.90;;;8.20;99.90;;;;;;5038679;28;20169;-77
2021/05/15 04:54:52;;;;;;;1999.90;999.90;;;8.20;99.90;;;;;;5042694;28;20194;-78
2021/05/15 04:57:18;;;;;;;1999.90;999.90;;;8.30;99.90;;;;;;5048325;28;20201;-79
2021/05/15 04:59:44;;;;;;;1999.90;999.90;;;8.30;99.90;;;;;;5042705;28;20739;-79
2021/05/15 05:02:09;;;;;;;1999.90;999.90;;;8.30;99.90;;;;;;5044223;28;20206;-78
2021/05/15 05:04:35;;;;;;;1999.90;999.90;;;8.40;99.90;;;;;;5043801;28;20200;-76
2021/05/15 05:07:01;;;;;;;1999.90;999.90;;;8.40;99.90;;;;;;5050190;28;20176;-76
2021/05/15 05:09:27;;;;;;;1999.90;999.90;;;8.50;99.90;;;;;;5048542;28;20204;-78
2021/05/15 05:11:52;;;;;;;1999.90;999.90;;;8.50;99.90;;;;;;5022578;28;20177;-78
2021/05/15 05:14:18;;;;;;;1999.90;999.90;;;8.60;99.90;;;;;;5055791;28;20233;-76
2021/05/15 05:16:44;;;;;;;1999.90;999.90;;;8.60;99.90;;;;;;5039782;28;20178;-76
2021/05/15 05:19:12;;;;;;;1999.90;999.90;;;8.50;99.90;;;;;;5038245;28;20655;-77
2021/05/15 05:21:38;;;;;;;1999.90;999.90;;;8.60;99.90;;;;;;5055802;28;20214;-77
2021/05/15 05:24:04;;;;;;;1999.90;999.90;;;8.70;99.90;;;;;;5039233;28;20199;-77
2021/05/15 05:26:34;;;;;;;1999.90;999.90;;;8.90;99.90;;;;;;5056340;28;20192;-77
2021/05/15 05:29:04;;;;;;;1999.90;999.90;;;9.00;99.90;;;;;;5034436;28;20239;-77
2021/05/15 05:31:29;;;;;;;1999.90;999.90;;;9.10;99.90;;;;;;5055751;28;20206;-78
2021/05/15 05:33:56;;;;;;;1999.90;999.90;;;9.20;99.90;;;;;;5053442;28;20200;-77
2021/05/15 05:36:21;;;;;;;1999.90;999.90;;;9.20;99.90;;;;;;5025873;28;20171;-78
2021/05/15 05:38:47;;;;;;;1999.90;999.90;;;9.30;99.90;;;;;;5040228;28;20332;-78
2021/05/15 05:41:12;;;;;;;1999.90;999.90;;;9.30;99.90;;;;;;5053539;28;20217;-79
2021/05/15 05:43:38;;;;;;;1999.90;999.90;;;9.40;99.90;;;;;;5065335;28;20201;-79
2021/05/15 05:46:04;;;;;;;1999.90;999.90;;;9.40;99.90;;;;;;5066269;28;20202;-78
2021/05/15 05:48:29;;;;;;;1999.90;999.90;;;9.60;99.90;;;;;;5053249;28;20193;-79
2021/05/15 05:50:55;;;;;;;1999.90;999.90;;;9.60;99.90;;;;;;5049017;28;20204;-79
2021/05/15 05:53:21;;;;;;;1999.90;999.90;;;9.60;99.90;;;;;;5051784;28;20201;-79
2021/05/15 05:55:46;;;;;;;1999.90;999.90;;;9.60;99.90;;;;;;5066372;28;20172;-78
2021/05/15 05:58:12;;;;;;;1999.90;999.90;;;9.70;99.90;;;;;;5070953;28;20184;-77
2021/05/15 06:00:37;;;;;;;1999.90;999.90;;;9.70;99.90;;;;;;5084722;28;20249;-78
2021/05/15 06:03:03;;;;;;;1999.90;999.90;;;9.70;99.90;;;;;;5066677;28;20182;-79
2021/05/15 06:05:29;;;;;;;1999.90;999.90;;;9.80;99.90;;;;;;5052962;28;20670;-78
2021/05/15 06:08:07;;;;;;;1999.90;999.90;;;9.80;99.90;;;;;;5053411;28;20203;-78
2021/05/15 06:10:35;;;;;;;1999.90;999.90;;;9.90;99.90;;;;;;5048677;28;20215;-78
2021/05/15 06:13:01;;;;;;;1999.90;999.90;;;10.00;99.90;;;;;;5055615;28;20654;-78
2021/05/15 06:15:27;;;;;;;1999.90;999.90;;;10.00;99.90;;;;;;5034229;28;20216;-78
2021/05/15 06:17:52;;;;;;;1999.90;999.90;;;10.10;99.90;;;;;;5051081;28;20218;-78
2021/05/15 06:20:18;;;;;;;1999.90;999.90;;;10.20;99.90;;;;;;5035925;28;20539;-77
2021/05/15 06:22:44;;;;;;;1999.90;999.90;;;10.20;99.90;;;;;;5052776;28;20211;-78
2021/05/15 06:25:10;;;;;;;1999.90;999.90;;;10.30;99.90;;;;;;5049398;28;20224;-77
2021/05/15 06:27:36;;;;;;;1999.90;999.90;;;10.40;99.90;;;;;;5054531;28;20191;-77
2021/05/15 06:30:03;;;;;;;1999.90;999.90;;;10.40;99.90;;;;;;5054872;28;20287;-77
2021/05/15 06:32:28;;;;;;;1999.90;999.90;;;10.30;99.90;;;;;;5036323;28;20216;-77
2021/05/15 06:34:54;;;;;;;1999.90;999.90;;;10.30;99.90;;;;;;5054322;28;20229;-76
2021/05/15 06:37:19;;;;;;;1999.90;999.90;;;10.20;99.90;;;;;;5054743;28;20252;-76
2021/05/15 06:39:45;;;;;;;1999.90;999.90;;;10.20;99.90;;;;;;5054168;28;20263;-76
2021/05/15 06:42:11;;;;;;;1999.90;999.90;;;10.30;99.90;;;;;;5054200;28;20584;-76
2021/05/15 06:44:36;;;;;;;1999.90;999.90;;;10.50;99.90;;;;;;5054851;28;20210;-76
2021/05/15 06:47:02;;;;;;;1999.90;999.90;;;10.60;99.90;;;;;;5054490;28;20223;-76
2021/05/15 06:49:28;;;;;;;1999.90;999.90;;;10.60;99.90;;;;;;5026939;28;20655;-77
2021/05/15 06:51:53;;;;;;;1999.90;999.90;;;10.80;99.90;;;;;;5072495;28;20193;-77
2021/05/15 06:54:19;;;;;;;1999.90;999.90;;;10.70;99.90;;;;;;5074548;28;20215;-77
2021/05/15 06:56:45;;;;;;;1999.90;999.90;;;10.70;99.90;;;;;;5074151;28;20606;-77
2021/05/15 06:59:10;;;;;;;1999.90;999.90;;;10.70;99.90;;;;;;5074493;28;20694;-77
2021/05/15 07:01:36;;;;;;;1999.90;999.90;;;10.80;99.90;;;;;;5074692;28;20233;-76
2021/05/15 07:04:02;;;;;;;1999.90;999.90;;;10.90;99.90;;;;;;5057274;28;20231;-77
2021/05/15 07:06:27;;;;;;;1999.90;999.90;;;10.90;99.90;;;;;;5053872;28;20216;-76
2021/05/15 07:08:53;;;;;;;1999.90;999.90;;;11.00;99.90;;;;;;5035573;28;20191;-77
2021/05/15 07:11:19;;;;;;;1999.90;999.90;;;11.20;99.90;;;;;;5035682;28;20280;-76
2021/05/15 07:13:44;;;;;;;1999.90;999.90;;;11.20;99.90;;;;;;5045073;28;20212;-78
2021/05/15 07:16:10;;;;;;;1999.90;999.90;;;11.20;99.90;;;;;;5035061;28;20177;-77
2021/05/15 07:18:35;;;;;;;1999.90;999.90;;;11.40;99.90;;;;;;5052825;28;20285;-76
2021/05/15 07:21:01;;;;;;;1999.90;999.90;;;11.40;99.90;;;;;;5053301;28;20192;-77
2021/05/15 07:23:27;;;;;;;1999.90;999.90;;;11.50;99.90;;;;;;5047547;28;20213;-77
2021/05/15 07:25:52;;;;;;;1999.90;999.90;;;11.70;99.90;;;;;;5045357;28;20289;-77
2021/05/15 07:28:18;;;;;;;1999.90;999.90;;;11.60;99.90;;;;;;5036746;28;20554;-77
2021/05/15 07:30:44;;;;;;;1999.90;999.90;;;11.70;99.90;;;;;;5046196;28;21585;-75
2021/05/15 07:33:11;;;;;;;1999.90;999.90;;;11.90;99.90;;;;;;5050939;28;20189;-77
2021/05/15 07:35:38;;;;;;;1999.90;999.90;;;12.00;99.90;;;;;;5074363;28;20170;-77
2021/05/15 07:38:03;;;;;;;1999.90;999.90;;;11.90;99.90;;;;;;5056458;28;20633;-77
2021/05/15 07:40:29;;;;;;;1999.90;999.90;;;12.00;99.90;;;;;;5065603;28;20183;-77
2021/05/15 07:42:54;;;;;;;1999.90;999.90;;;12.00;99.90;;;;;;5073959;28;20191;-78
2021/05/15 07:45:20;;;;;;;1999.90;999.90;;;12.10;99.90;;;;;;5073899;28;20172;-77
2021/05/15 07:47:46;;;;;;;1999.90;999.90;;;12.20;99.90;;;;;;5065534;28;20188;-77
2021/05/15 07:50:15;;;;;;;1999.90;999.90;;;12.40;99.90;;;;;;5073314;28;20671;-76
2021/05/15 07:52:40;;;;;;;1999.90;999.90;;;12.40;99.90;;;;;;5073736;28;20181;-77
2021/05/15 07:55:07;;;;;;;1999.90;999.90;;;12.40;99.90;;;;;;5073502;28;20714;-76
2021/05/15 07:57:33;;;;;;;1999.90;999.90;;;12.30;99.90;;;;;;5073113;28;20181;-77
2021/05/15 07:59:59;;;;;;;1999.90;999.90;;;12.40;99.90;;;;;;5073867;28;20180;-77
2021/05/15 08:02:27;;;;;;;1999.90;999.90;;;12.40;99.90;;;;;;5055316;28;20256;-74
2021/05/15 08:04:55;;;;;;;1999.90;999.90;;;12.60;99.90;;;;;;5048894;28;20236;-77
2021/05/15 08:07:20;;;;;;;1999.90;999.90;;;12.50;99.90;;;;;;5073292;28;20265;-76
2021/05/15 08:09:46;;;;;;;1999.90;999.90;;;12.50;99.90;;;;;;5054981;28;20693;-77
2021/05/15 08:12:12;;;;;;;1999.90;999.90;;;12.60;99.90;;;;;;5061078;28;20177;-78
2021/05/15 08:14:38;;;;;;;1999.90;999.90;;;12.80;99.90;;;;;;5053594;28;20755;-78
2021/05/15 08:17:03;;;;;;;1999.90;999.90;;;13.20;99.90;;;;;;5049859;28;20170;-76
2021/05/15 08:19:29;;;;;;;1999.90;999.90;;;13.30;99.90;;;;;;5051353;28;20648;-75
2021/05/15 08:21:55;;;;;;;1999.90;999.90;;;13.20;99.90;;;;;;5035170;28;20593;-77
2021/05/15 08:24:21;;;;;;;1999.90;999.90;;;13.20;99.90;;;;;;5034937;28;20196;-77
2021/05/15 08:26:47;;;;;;;1999.90;999.90;;;13.00;99.90;;;;;;5053232;28;20676;-76
2021/05/15 08:29:15;;;;;;;1999.90;999.90;;;12.90;99.90;;;;;;5053094;28;20177;-77
2021/05/15 08:31:41;;;;;;;1999.90;999.90;;;12.90;99.90;;;;;;5057289;28;20197;-78
2021/05/15 08:34:07;;;;;;;1999.90;999.90;;;13.00;99.90;;;;;;5039529;28;20231;-78
2021/05/15 08:36:32;;;;;;;1999.90;999.90;;;12.90;99.90;;;;;;5057084;28;20649;-78
2021/05/15 08:38:59;;;;;;;1999.90;999.90;;;13.00;99.90;;;;;;5038913;28;20558;-77
2021/05/15 08:41:25;;;;;;;1999.90;999.90;;;13.10;99.90;;;;;;5056622;28;20547;-78
2021/05/15 08:43:53;;;;;;;1999.90;999.90;;;13.20;99.90;;;;;;5056218;28;20198;-77
2021/05/15 08:46:20;;;;;;;1999.90;999.90;;;13.20;99.90;;;;;;5056539;28;20555;-77
2021/05/15 08:48:46;;;;;;;1999.90;999.90;;;13.20;99.90;;;;;;5056701;28;20178;-77
2021/05/15 08:51:12;;;;;;;1999.90;999.90;;;13.40;99.90;;;;;;5055368;28;20244;-78
2021/05/15 08:53:40;;;;;;;1999.90;999.90;;;13.50;99.90;;;;;;5039148;28;20233;-77
2021/05/15 08:56:10;;;;;;;1999.90;999.90;;;13.60;99.90;;;;;;5046300;28;20180;-78
2021/05/15 08:58:37;;;;;;;1999.90;999.90;;;13.70;99.90;;;;;;5045878;28;20219;-78
2021/05/15 09:01:05;;;;;;;1999.90;999.90;;;13.60;99.90;;;;;;5047498;28;20174;-78
2021/05/15 09:03:30;;;;;;;1999.90;999.90;;;13.50;99.90;;;;;;5034993;28;20206;-77
2021/05/15 09:05:56;;;;;;;1999.90;999.90;;;13.40;99.90;;;;;;5046860;28;20758;-77
2021/05/15 09:08:22;;;;;;;1999.90;999.90;;;13.40;99.90;;;;;;5025088;28;20213;-78
2021/05/15 09:10:50;;;;;;;1999.90;999.90;;;13.40;99.90;;;;;;5032377;28;20198;-78
2021/05/15 09:13:18;;;;;;;1999.90;999.90;;;13.50;99.90;;;;;;5043984;28;20202;-77
2021/05/15 09:15:51;;;;;;;1999.90;999.90;;;13.50;99.90;;;;;;5031149;28;20733;-78
2021/05/15 09:18:20;;;;;;;1999.90;999.90;;;13.70;99.90;;;;;;5032086;28;20606;-79
2021/05/15 09:20:47;;;;;;;1999.90;999.90;;;13.90;99.90;;;;;;5051428;28;20265;-77
2021/05/15 09:23:37;;;;;;;1999.90;999.90;;;14.00;99.90;;;;;;5048896;28;20202;-74
2021/05/15 09:26:11;;;;;;;1999.90;999.90;;;13.90;99.90;;;;;;5114551;22;20603;-74
2021/05/15 09:28:41;;;;;;;1999.90;999.90;;;14.40;99.90;;;;;;5115214;28;20212;-75
2021/05/15 09:31:26;;;;;;;1999.90;999.90;;;14.50;99.90;;;;;;5079982;28;20199;-74
2021/05/15 09:33:54;;;;;;;1999.90;999.90;;;14.60;99.90;;;;;;5117622;28;20437;-82
2021/05/15 09:36:29;;;;;;;1999.90;999.90;;;14.60;99.90;;;;;;5103614;28;20440;-81
2021/05/15 09:39:20;;;;;;;1999.90;999.90;;;14.80;99.90;;;;;;5121154;28;20535;-82
2021/05/15 09:41:54;;;;;;;1999.90;999.90;;;14.90;99.90;;;;;;5094016;28;20209;-82
2021/05/15 09:44:26;;;;;;;1999.90;999.90;;;14.90;99.90;;;;;;5102454;28;20546;-78
2021/05/15 09:46:53;;;;;;;1999.90;999.90;;;15.00;99.90;;;;;;5115888;28;20205;-76
2021/05/15 09:49:23;;;;;;;1999.90;999.90;;;15.10;99.90;;;;;;5115970;28;20251;-76
2021/05/15 09:52:00;;;;;;;1999.90;999.90;;;14.80;99.90;;;;;;5115749;28;20688;-76
2021/05/15 09:54:39;;;;;;;1999.90;999.90;;;15.00;99.90;;;;;;5115741;28;20174;-76
2021/05/15 09:57:18;;;;;;;1999.90;999.90;;;15.20;99.90;;;;;;5115644;28;20286;-76
2021/05/15 09:59:49;;;;;;;1999.90;999.90;;;15.40;99.90;;;;;;5085724;28;20167;-76
2021/05/15 10:02:17;;;;;;;1999.90;999.90;;;15.50;99.90;;;;;;5115933;28;20203;-76
2021/05/15 10:04:48;;;;;;;1999.90;999.90;;;15.40;99.90;;;;;;5110807;28;20176;-76
2021/05/15 10:07:26;;;;;;;1999.90;999.90;;;15.60;99.90;;;;;;5097282;28;20149;-76
2021/05/15 10:09:52;;;;;;;1999.90;999.90;;;15.60;99.90;;;;;;5100766;28;20533;-76
2021/05/15 10:12:19;;;;;;;1999.90;999.90;;;15.80;99.90;;;;;;5115481;28;20638;-76
2021/05/15 10:14:48;;;;;;;1999.90;999.90;;;15.70;99.90;;;;;;5115790;28;20209;-76
2021/05/15 10:17:13;;;;;;;1999.90;999.90;;;15.90;99.90;;;;;;5097053;28;20175;-76
2021/05/15 10:19:39;;;;;;;1999.90;999.90;;;15.90;99.90;;;;;;5095899;28;20175;-76
2021/05/15 10:22:04;;;;;;;1999.90;999.90;;;15.90;99.90;;;;;;5115765;28;20164;-76
2021/05/15 10:24:33;;;;;;;1999.90;999.90;;;16.00;99.90;;;;;;5115700;28;20187;-76
2021/05/15 10:26:58;;;;;;;1999.90;999.90;;;16.10;99.90;;;;;;5115119;28;20647;-76
2021/05/15 10:29:35;;;;;;;1999.90;999.90;;;16.10;99.90;;;;;;5097229;28;20262;-76
2021/05/15 10:32:00;;;;;;;1999.90;999.90;;;15.90;99.90;;;;;;5097177;28;20244;-76
2021/05/15 10:34:33;;;;;;;1999.90;999.90;;;15.70;99.90;;;;;;5097587;28;20705;-76
2021/05/15 10:37:01;;;;;;;1999.90;999.90;;;15.90;99.90;;;;;;5114803;28;20559;-76
2021/05/15 10:39:32;;;;;;;1999.90;999.90;;;16.10;99.90;;;;;;5114973;28;20626;-76
2021/05/15 10:42:00;;;;;;;1999.90;999.90;;;16.30;99.90;;;;;;5114834;28;20652;-76
2021/05/15 10:44:37;;;;;;;1999.90;999.90;;;16.20;99.90;;;;;;5114890;28;20252;-76
2021/05/15 10:47:03;;;;;;;1999.90;999.90;;;16.00;99.90;;;;;;5096501;28;20545;-76
2021/05/15 10:49:29;;;;;;;1999.90;999.90;;;15.90;99.90;;;;;;5114643;28;20168;-76
2021/05/15 10:52:08;;;;;;;1999.90;999.90;;;15.90;99.90;;;;;;5114317;28;20188;-76
2021/05/15 10:54:42;;;;;;;1999.90;999.90;;;16.00;99.90;;;;;;5096460;28;20696;-76
2021/05/15 10:57:19;;;;;;;1999.90;999.90;;;16.00;99.90;;;;;;5114551;28;20229;-75
2021/05/15 10:59:56;;;;;;;1999.90;999.90;;;16.10;99.90;;;;;;5114579;28;20561;-76
2021/05/15 11:02:30;;;;;;;1999.90;999.90;;;16.10;99.90;;;;;;5114537;28;20174;-76
2021/05/15 11:04:55;;;;;;;1999.90;999.90;;;16.30;99.90;;;;;;5096106;28;20184;-76
2021/05/15 11:07:42;;;;;;;1999.90;999.90;;;16.40;99.90;;;;;;5096005;28;20237;-76
2021/05/15 11:10:17;;;;;;;1999.90;999.90;;;16.20;99.90;;;;;;5096125;28;20195;-76
2021/05/15 11:12:53;;;;;;;1999.90;999.90;;;16.30;99.90;;;;;;5114238;28;20588;-76
2021/05/15 11:15:21;;;;;;;1999.90;999.90;;;16.20;99.90;;;;;;5114545;28;20214;-76
2021/05/15 11:18:27;;;;;;;1999.90;999.90;;;16.10;99.90;;;;;;5114117;28;20172;-75
2021/05/15 11:21:00;;;;;;;1999.90;999.90;;;16.20;99.90;;;;;;5103705;28;20190;-76
2021/05/15 11:23:25;;;;;;;1999.90;999.90;;;16.30;99.90;;;;;;5096103;28;20258;-76
2021/05/15 11:26:04;;;;;;;1999.90;999.90;;;16.30;99.90;;;;;;5114361;28;20246;-76
2021/05/15 11:28:31;;;;;;;1999.90;999.90;;;16.10;99.90;;;;;;5096009;28;20601;-76
2021/05/15 11:30:57;;;;;;;1999.90;999.90;;;15.90;99.90;;;;;;5095718;28;20201;-76
2021/05/15 11:33:24;;;;;;;1999.90;999.90;;;15.80;99.90;;;;;;5114385;28;20198;-76
2021/05/15 11:35:52;;;;;;;1999.90;999.90;;;15.70;99.90;;;;;;5114105;28;20208;-76
2021/05/15 11:38:23;;;;;;;1999.90;999.90;;;15.60;99.90;;;;;;5114077;28;20167;-75
2021/05/15 11:40:48;;;;;;;1999.90;999.90;;;15.60;99.90;;;;;;5095570;28;20176;-76
2021/05/15 11:43:22;;;;;;;1999.90;999.90;;;15.40;99.90;;;;;;5095469;28;20771;-75
2021/05/15 11:45:52;;;;;;;1999.90;999.90;;;15.50;99.90;;;;;;5114067;28;20226;-76
2021/05/15 11:48:22;;;;;;;1999.90;999.90;;;15.60;99.90;;;;;;5095577;28;20180;-76
2021/05/15 11:51:13;;;;;;;1999.90;999.90;;;15.60;99.90;;;;;;5095602;28;20202;-76
2021/05/15 11:53:50;;;;;;;1999.90;999.90;;;15.80;99.90;;;;;;5103809;28;20266;-76
2021/05/15 11:56:21;;;;;;;1999.90;999.90;;;15.70;99.90;;;;;;5095424;28;20187;-76
2021/05/15 11:58:57;;;;;;;1999.90;999.90;;;15.50;99.90;;;;;;5094492;28;20828;-76
2021/05/15 12:01:27;;;;;;;1999.90;999.90;;;15.50;99.90;;;;;;5113850;28;20743;-76
2021/05/15 12:04:07;;;;;;;1999.90;999.90;;;15.50;99.90;;;;;;5113582;28;20305;-76
2021/05/15 12:06:34;;;;;;;1999.90;999.90;;;15.70;99.90;;;;;;5117843;28;20278;-76
2021/05/15 12:09:09;;;;;;;1999.90;999.90;;;15.80;99.90;;;;;;5117585;28;20182;-76